createdAt,value
2023-02-08T00:01:13.501Z,25.90
2023-02-08T00:06:18.064Z,28.52
2023-02-08T00:11:20.999Z,27.77
2023-02-08T00:16:23.978Z,26.55
2023-02-08T00:21:28.087Z,25.73
2023-02-08T00:26:30.874Z,28.83
2023-02-08T00:31:33.702Z,26.10
2023-02-08T00:36:37.958Z,24.98
2023-02-08T00:41:40.640Z,28.60
2023-02-08T00:46:43.419Z,25.23
2023-02-08T00:51:48.171Z,24.63
2023-02-08T00:56:50.896Z,27.35
2023-02-08T01:01:55.010Z,28.05
2023-02-08T01:07:00.406Z,26.88
2023-02-08T01:12:03.318Z,22.30
2023-02-08T01:17:06.205Z,24.98
2023-02-08T01:22:10.435Z,26.70
2023-02-08T01:27:13.636Z,28.15
2023-02-08T01:32:16.364Z,28.17
2023-02-08T01:37:20.564Z,25.42
2023-02-08T01:42:23.565Z,27.70
2023-02-08T01:47:26.426Z,31.90
2023-02-08T01:52:30.702Z,30.80
2023-02-08T01:57:33.838Z,29.52
2023-02-08T02:02:38.094Z,29.45
2023-02-08T02:07:42.585Z,28.38
2023-02-08T02:12:46.537Z,29.85
2023-02-08T02:17:49.643Z,33.05
2023-02-08T02:23:37.224Z,30.92
2023-02-08T02:29:07.370Z,33.58
2023-02-08T02:34:21.247Z,32.30
2023-02-08T02:39:32.904Z,31.30
2023-02-08T02:44:40.026Z,31.23
2023-02-08T02:49:51.249Z,32.92
2023-02-08T02:54:56.893Z,39.03
2023-02-08T03:00:01.090Z,29.60
2023-02-08T03:05:11.661Z,34.55
2023-02-08T03:10:27.220Z,34.03
2023-02-08T03:15:41.288Z,39.47
2023-02-08T03:20:50.552Z,34.00
2023-02-08T03:26:01.680Z,36.63
2023-02-08T03:31:09.686Z,36.63
2023-02-08T03:36:23.071Z,33.40
2023-02-08T03:41:31.929Z,38.67
2023-02-08T03:46:39.050Z,39.35
2023-02-08T03:51:45.211Z,39.63
2023-02-08T03:56:52.628Z,40.60
2023-02-08T04:01:59.204Z,37.23
2023-02-08T04:07:03.555Z,36.88
2023-02-08T04:12:06.890Z,36.25
2023-02-08T04:17:09.727Z,37.20
2023-02-08T04:22:13.837Z,37.03
2023-02-08T04:27:16.705Z,39.75
2023-02-08T04:32:19.497Z,35.92
2023-02-08T04:37:24.659Z,38.75
2023-02-08T04:42:27.609Z,40.97
2023-02-08T04:47:30.364Z,37.60
2023-02-08T04:52:34.417Z,41.20
2023-02-08T04:57:37.193Z,38.70
2023-02-08T05:02:39.921Z,36.55
2023-02-08T05:07:44.209Z,41.33
2023-02-08T05:12:47.048Z,41.50
2023-02-08T05:17:49.929Z,41.70
2023-02-08T05:22:54.017Z,39.25
2023-02-08T05:27:56.795Z,45.15
2023-02-08T05:32:59.582Z,45.22
2023-02-08T05:38:03.714Z,47.65
2023-02-08T05:43:06.463Z,42.15
2023-02-08T05:48:09.242Z,43.40
2023-02-08T05:53:13.503Z,45.88
2023-02-08T05:58:16.600Z,36.10
2023-02-08T06:03:19.458Z,42.72
2023-02-08T06:08:23.611Z,48.72
2023-02-08T06:13:26.431Z,41.42
2023-02-08T06:18:29.388Z,47.33
2023-02-08T06:23:33.528Z,42.88
2023-02-08T06:28:36.299Z,48.22
2023-02-08T06:33:39.125Z,50.20
2023-02-08T06:38:43.248Z,47.63
2023-02-08T06:43:46.216Z,48.95
2023-02-08T06:48:48.948Z,63.33
2023-02-08T06:53:53.770Z,48.03
2023-02-08T06:58:57.346Z,46.28
2023-02-08T07:04:00.978Z,41.83
2023-02-08T07:09:05.729Z,46.30
2023-02-08T07:14:08.550Z,47.80
2023-02-08T07:19:11.324Z,60.70
2023-02-08T07:24:15.419Z,56.05
2023-02-08T07:29:18.218Z,53.83
2023-02-08T07:34:22.262Z,52.97
2023-02-08T07:39:26.794Z,53.60
2023-02-08T07:44:29.658Z,49.10
2023-02-08T07:49:32.484Z,48.53
2023-02-08T07:54:36.571Z,48.55
2023-02-08T07:59:39.338Z,44.08
2023-02-08T08:04:42.223Z,48.05
2023-02-08T08:09:46.511Z,48.97
2023-02-08T08:14:49.329Z,51.25
2023-02-08T08:19:52.070Z,48.33
2023-02-08T08:24:56.203Z,46.55
2023-02-08T08:29:59.843Z,47.72
2023-02-08T08:35:02.605Z,48.65
2023-02-08T08:40:08.706Z,46.72
2023-02-08T08:45:12.609Z,49.88
2023-02-08T08:50:15.871Z,50.50
2023-02-08T08:55:20.350Z,56.38
2023-02-08T09:00:23.585Z,49.95
2023-02-08T09:05:26.611Z,48.47
2023-02-08T09:10:31.449Z,57.55
2023-02-08T09:15:34.423Z,48.53
2023-02-08T09:20:38.764Z,47.47
2023-02-08T09:25:43.152Z,51.90
2023-02-08T09:30:46.240Z,47.38
2023-02-08T09:35:49.663Z,52.83
2023-02-08T09:41:05.299Z,54.33
2023-02-08T09:46:16.087Z,52.28
2023-02-08T09:51:26.317Z,50.58
2023-02-08T09:56:36.263Z,47.30
2023-02-08T10:01:39.489Z,54.35
2023-02-08T10:06:45.343Z,52.00
2023-02-08T10:12:03.697Z,51.22
2023-02-08T10:17:25.339Z,50.58
2023-02-08T10:22:39.564Z,47.80
2023-02-08T10:27:53.846Z,50.92
2023-02-08T10:33:02.122Z,45.72
2023-02-08T10:38:25.191Z,44.50
2023-02-08T10:43:38.645Z,47.22
2023-02-08T10:49:03.699Z,43.22
2023-02-08T10:54:06.892Z,46.17
2023-02-08T10:59:17.841Z,46.38
2023-02-08T11:04:21.566Z,49.78
2023-02-08T11:09:27.426Z,46.22
2023-02-08T11:14:46.711Z,44.20
2023-02-08T11:19:51.824Z,44.85
2023-02-08T11:24:57.887Z,45.55
2023-02-08T11:30:21.453Z,51.00
2023-02-08T11:35:26.897Z,43.13
2023-02-08T11:40:36.770Z,44.65
2023-02-08T11:45:47.695Z,46.55
2023-02-08T11:56:05.022Z,42.78
2023-02-08T12:01:20.329Z,41.13
2023-02-08T12:06:50.267Z,45.08
2023-02-08T12:12:02.389Z,38.83
2023-02-08T12:17:36.973Z,39.35
2023-02-08T12:22:43.860Z,43.50
2023-02-08T12:27:53.406Z,36.80
2023-02-08T12:33:25.381Z,38.95
2023-02-08T12:39:17.902Z,40.42
2023-02-08T12:44:33.788Z,31.63
2023-02-08T12:49:58.710Z,31.35
2023-02-08T12:55:04.005Z,30.02
2023-02-08T13:00:15.831Z,32.13
2023-02-08T13:05:23.318Z,29.92
2023-02-08T13:10:30.412Z,29.00
2023-02-08T13:15:40.532Z,27.95
2023-02-08T13:20:48.993Z,29.40
2023-02-08T13:31:00.993Z,31.95
2023-02-08T13:36:06.069Z,30.17
2023-02-08T13:41:17.632Z,24.60
2023-02-08T13:46:23.000Z,29.83
2023-02-08T13:52:03.350Z,27.98
2023-02-08T13:57:44.983Z,24.30
2023-02-08T14:03:01.115Z,21.27
2023-02-08T14:08:07.217Z,20.95
2023-02-08T14:13:26.763Z,20.98
2023-02-08T14:18:31.474Z,16.30
2023-02-08T14:23:40.222Z,14.13
2023-02-08T14:28:48.768Z,15.38
2023-02-08T14:33:56.045Z,16.70
2023-02-08T14:39:26.178Z,12.30
2023-02-08T14:44:59.326Z,15.90
2023-02-08T14:50:13.976Z,14.25
2023-02-08T14:55:20.900Z,18.55
2023-02-08T15:00:27.210Z,19.10
2023-02-08T15:05:36.245Z,19.40
2023-02-08T15:10:44.755Z,21.05
2023-02-08T15:15:53.484Z,23.55
2023-02-08T15:26:05.714Z,24.90
2023-02-08T15:31:10.666Z,27.80
2023-02-08T15:36:19.890Z,27.17
2023-02-08T15:41:27.245Z,27.75
2023-02-08T15:46:30.859Z,28.27
2023-02-08T15:51:35.190Z,33.97
2023-02-08T15:56:42.404Z,28.92
2023-02-08T16:01:48.003Z,33.20
2023-02-08T16:06:55.151Z,28.45
2023-02-08T16:12:01.188Z,28.00
2023-02-08T16:17:05.130Z,29.02
2023-02-08T16:22:30.594Z,29.45
2023-02-08T16:27:33.759Z,26.35
2023-02-08T16:32:39.647Z,25.17
2023-02-08T16:37:44.014Z,23.13
2023-02-08T16:42:46.993Z,27.73
2023-02-08T16:47:53.060Z,25.33
2023-02-08T16:53:00.870Z,27.05
2023-02-08T16:58:03.865Z,28.80
2023-02-08T17:03:06.651Z,24.85
2023-02-08T17:08:16.487Z,23.73
2023-02-08T17:13:21.449Z,28.05
2023-02-08T17:18:24.308Z,27.73
2023-02-08T17:23:28.746Z,30.63
2023-02-08T17:28:34.468Z,29.80
2023-02-08T17:33:40.083Z,29.10
2023-02-08T17:38:46.072Z,28.20
2023-02-08T17:43:50.998Z,28.70
2023-02-08T17:48:54.372Z,29.67
2023-02-08T17:53:58.591Z,31.45
2023-02-08T17:59:03.902Z,28.48
2023-02-08T18:04:06.974Z,30.45
2023-02-08T18:09:11.206Z,34.78
2023-02-08T18:14:14.274Z,38.88
2023-02-08T18:19:17.206Z,36.75
2023-02-08T18:24:21.406Z,36.08
2023-02-08T18:29:24.912Z,36.38
2023-02-08T18:34:27.829Z,38.05
2023-02-08T18:39:32.221Z,32.65
2023-02-08T18:44:36.806Z,37.33
2023-02-08T18:49:41.353Z,38.90
2023-02-08T18:54:45.580Z,32.85
2023-02-08T18:59:48.441Z,36.17
2023-02-08T19:04:51.261Z,39.40
2023-02-08T19:09:55.628Z,39.75
2023-02-08T19:15:00.009Z,34.25
2023-02-08T19:20:02.954Z,36.58
2023-02-08T19:25:08.426Z,33.83
2023-02-08T19:30:16.006Z,33.90
2023-02-08T19:35:19.752Z,33.97
2023-02-08T19:40:24.625Z,35.80
2023-02-08T19:45:27.547Z,39.30
2023-02-08T19:50:30.547Z,37.33
2023-02-08T19:55:34.707Z,37.17
2023-02-08T20:00:37.564Z,36.20
2023-02-08T20:05:50.149Z,44.85
2023-02-08T20:11:01.558Z,41.35
2023-02-08T20:16:11.102Z,45.25
2023-02-08T20:21:24.009Z,45.22
2023-02-08T20:26:39.703Z,43.78
2023-02-08T20:31:57.560Z,43.85
2023-02-08T20:37:07.647Z,44.67
2023-02-08T20:42:17.633Z,43.50
2023-02-08T20:47:28.540Z,48.28
2023-02-08T20:52:41.235Z,46.67
2023-02-08T20:57:59.008Z,43.70
2023-02-08T21:03:10.305Z,46.05
2023-02-08T21:08:15.361Z,45.55
2023-02-08T21:13:21.266Z,48.22
2023-02-08T21:18:25.527Z,47.38
2023-02-08T21:23:34.495Z,52.45
2023-02-08T21:28:41.470Z,52.30
2023-02-08T21:33:47.155Z,52.42
2023-02-08T21:38:56.874Z,47.72
2023-02-08T21:44:11.785Z,51.95
2023-02-08T21:49:31.962Z,46.88
2023-02-08T21:54:53.144Z,47.53
2023-02-08T21:59:59.520Z,48.58
2023-02-08T22:05:04.394Z,53.80
2023-02-08T22:10:08.232Z,49.47
2023-02-08T22:15:14.772Z,48.63
2023-02-08T22:20:17.704Z,54.67
2023-02-08T22:25:21.167Z,55.35
2023-02-08T22:30:25.810Z,55.80
2023-02-08T22:35:28.884Z,49.08
2023-02-08T22:40:31.697Z,52.95
2023-02-08T22:45:36.037Z,51.40
2023-02-08T22:50:39.686Z,53.58
2023-02-08T22:55:49.661Z,53.70
2023-02-08T23:00:53.806Z,57.97
2023-02-08T23:05:56.690Z,50.20
2023-02-08T23:11:01.176Z,50.53
2023-02-08T23:16:08.216Z,50.45
2023-02-08T23:21:13.783Z,54.75
2023-02-08T23:26:19.865Z,53.75
2023-02-08T23:31:24.105Z,60.47
2023-02-08T23:36:27.605Z,56.22
2023-02-08T23:41:30.436Z,51.20
2023-02-08T23:46:34.773Z,54.78
2023-02-08T23:51:37.896Z,55.55
2023-02-08T23:56:40.785Z,54.65
